createdAt,value
2023-02-13T00:00:18.474Z,11.74
2023-02-13T00:02:45.273Z,11.72
2023-02-13T00:05:11.771Z,11.72
2023-02-13T00:07:38.242Z,11.72
2023-02-13T00:10:05.257Z,11.72
2023-02-13T00:12:31.698Z,11.71
2023-02-13T00:14:59.074Z,11.71
2023-02-13T00:17:26.442Z,11.70
2023-02-13T00:19:52.782Z,11.70
2023-02-13T00:22:19.141Z,11.70
2023-02-13T00:24:46.464Z,11.71
2023-02-13T00:27:12.933Z,11.71
2023-02-13T00:29:39.458Z,11.71
2023-02-13T00:32:05.969Z,11.72
2023-02-13T00:34:32.417Z,11.72
2023-02-13T00:36:58.865Z,11.72
2023-02-13T00:39:25.295Z,11.71
2023-02-13T00:41:51.632Z,11.72
2023-02-13T00:44:18.054Z,11.71
2023-02-13T00:46:44.458Z,11.70
2023-02-13T00:49:10.877Z,11.69
2023-02-13T00:51:37.270Z,11.69
2023-02-13T00:54:03.780Z,11.68
2023-02-13T00:56:30.140Z,11.69
2023-02-13T00:58:56.473Z,11.68
2023-02-13T01:01:22.903Z,11.68
2023-02-13T01:03:49.384Z,11.67
2023-02-13T01:06:15.842Z,11.67
2023-02-13T01:08:42.627Z,11.66
2023-02-13T01:11:09.322Z,11.66
2023-02-13T01:13:36.293Z,11.66
2023-02-13T01:16:02.719Z,11.65
2023-02-13T01:18:29.460Z,11.64
2023-02-13T01:21:01.477Z,11.65
2023-02-13T01:23:37.982Z,11.64
2023-02-13T01:26:05.943Z,11.64
2023-02-13T01:28:32.716Z,11.62
2023-02-13T01:31:00.257Z,11.61
2023-02-13T01:33:28.317Z,11.61
2023-02-13T01:35:54.713Z,11.60
2023-02-13T01:38:21.582Z,11.59
2023-02-13T01:40:49.390Z,11.58
2023-02-13T01:43:15.968Z,11.57
2023-02-13T01:45:45.844Z,11.58
2023-02-13T01:48:21.122Z,11.57
2023-02-13T01:50:52.931Z,11.57
2023-02-13T01:53:27.805Z,11.56
2023-02-13T01:56:13.375Z,11.57
2023-02-13T01:58:43.155Z,11.56
2023-02-13T02:01:10.628Z,11.54
2023-02-13T02:03:59.675Z,11.52
2023-02-13T02:06:57.166Z,11.51
2023-02-13T02:09:27.546Z,11.49
2023-02-13T02:12:01.518Z,11.49
2023-02-13T02:14:28.229Z,11.43
2023-02-13T02:16:54.614Z,11.42
2023-02-13T02:19:27.367Z,11.42
2023-02-13T02:22:16.345Z,11.41
2023-02-13T02:25:00.845Z,11.39
2023-02-13T02:28:05.844Z,11.36
2023-02-13T02:31:08.578Z,11.36
2023-02-13T02:33:56.243Z,11.36
2023-02-13T02:36:46.748Z,11.34
2023-02-13T02:39:31.816Z,11.33
2023-02-13T02:42:18.507Z,11.33
2023-02-13T02:45:10.221Z,11.31
2023-02-13T02:48:19.483Z,11.30
2023-02-13T02:51:03.089Z,11.30
2023-02-13T02:53:35.313Z,11.28
2023-02-13T02:56:12.699Z,11.27
2023-02-13T02:59:06.783Z,11.26
2023-02-13T03:01:53.086Z,11.24
2023-02-13T03:04:41.318Z,11.25
2023-02-13T03:07:10.556Z,11.23
2023-02-13T03:09:59.946Z,11.21
2023-02-13T03:12:52.291Z,11.18
2023-02-13T03:15:19.201Z,11.16
2023-02-13T03:18:03.942Z,11.14
2023-02-13T03:21:12.032Z,11.14
2023-02-13T03:23:55.103Z,11.13
2023-02-13T03:26:46.084Z,11.12
2023-02-13T03:29:37.108Z,11.11
2023-02-13T03:32:26.260Z,11.11
2023-02-13T03:35:23.227Z,11.10
2023-02-13T03:37:56.013Z,11.10
2023-02-13T03:40:38.084Z,11.10
2023-02-13T03:43:14.309Z,11.11
2023-02-13T03:45:57.214Z,11.13
2023-02-13T03:48:52.203Z,11.14
2023-02-13T03:51:30.927Z,11.16
2023-02-13T03:54:01.867Z,11.14
2023-02-13T03:56:50.263Z,11.16
2023-02-13T03:59:22.453Z,11.16
2023-02-13T04:02:07.866Z,11.15
2023-02-13T04:04:49.804Z,11.16
2023-02-13T04:07:32.813Z,11.15
2023-02-13T04:10:07.221Z,11.14
2023-02-13T04:12:41.774Z,11.14
2023-02-13T04:15:27.343Z,11.13
2023-02-13T04:18:05.473Z,11.14
2023-02-13T04:20:32.716Z,11.12
2023-02-13T04:23:05.062Z,11.12
2023-02-13T04:25:31.533Z,11.11
2023-02-13T04:27:57.857Z,11.11
2023-02-13T04:30:24.345Z,11.10
2023-02-13T04:32:52.737Z,11.11
2023-02-13T04:35:19.076Z,11.10
2023-02-13T04:37:45.423Z,11.10
2023-02-13T04:40:12.057Z,11.09
2023-02-13T04:42:39.284Z,11.09
2023-02-13T04:45:05.830Z,11.07
2023-02-13T04:47:32.930Z,11.05
2023-02-13T04:49:59.309Z,11.05
2023-02-13T04:52:25.621Z,11.04
2023-02-13T04:54:51.987Z,11.03
2023-02-13T04:57:18.306Z,11.03
2023-02-13T04:59:44.669Z,11.04
2023-02-13T05:02:10.989Z,11.04
2023-02-13T05:04:37.351Z,11.03
2023-02-13T05:07:03.782Z,11.06
2023-02-13T05:09:30.118Z,11.04
2023-02-13T05:11:56.488Z,11.04
2023-02-13T05:14:22.869Z,11.05
2023-02-13T05:16:49.714Z,11.04
2023-02-13T05:19:16.891Z,11.03
2023-02-13T05:22:02.291Z,11.03
2023-02-13T05:24:28.601Z,11.02
2023-02-13T05:26:55.039Z,11.02
2023-02-13T05:29:22.946Z,11.01
2023-02-13T05:31:54.357Z,11.01
2023-02-13T05:34:22.191Z,10.97
2023-02-13T05:36:48.846Z,10.97
2023-02-13T05:39:15.346Z,10.96
2023-02-13T05:41:46.054Z,10.96
2023-02-13T05:44:13.520Z,10.94
2023-02-13T05:46:41.689Z,10.94
2023-02-13T05:49:09.905Z,10.93
2023-02-13T05:51:36.843Z,10.93
2023-02-13T05:54:03.649Z,10.92
2023-02-13T05:56:30.422Z,10.93
2023-02-13T05:58:57.478Z,10.93
2023-02-13T06:01:24.941Z,10.93
2023-02-13T06:03:51.473Z,10.95
2023-02-13T06:06:18.166Z,10.95
2023-02-13T06:08:44.609Z,10.94
2023-02-13T06:11:11.250Z,10.94
2023-02-13T06:13:40.528Z,10.93
2023-02-13T06:16:08.299Z,10.93
2023-02-13T06:18:35.372Z,10.93
2023-02-13T06:21:02.210Z,10.93
2023-02-13T06:23:29.188Z,10.92
2023-02-13T06:25:55.601Z,10.92
2023-02-13T06:28:21.996Z,10.91
2023-02-13T06:30:49.081Z,10.90
2023-02-13T06:33:15.431Z,10.90
2023-02-13T06:35:41.780Z,10.90
2023-02-13T06:38:08.131Z,10.89
2023-02-13T06:40:34.442Z,10.90
2023-02-13T06:43:00.843Z,10.90
2023-02-13T06:45:27.296Z,10.90
2023-02-13T06:47:54.144Z,10.89
2023-02-13T06:50:20.577Z,10.88
2023-02-13T06:52:51.833Z,10.90
2023-02-13T06:55:19.286Z,10.89
2023-02-13T06:57:45.769Z,10.89
2023-02-13T07:00:14.103Z,10.90
2023-02-13T07:02:42.001Z,10.92
2023-02-13T07:05:09.219Z,10.94
2023-02-13T07:07:37.364Z,10.94
2023-02-13T07:10:05.778Z,10.95
2023-02-13T07:12:36.609Z,10.96
2023-02-13T07:15:08.095Z,10.97
2023-02-13T07:17:34.598Z,10.99
2023-02-13T07:20:01.023Z,10.98
2023-02-13T07:22:27.564Z,11.00
2023-02-13T07:24:53.983Z,11.02
2023-02-13T07:27:20.330Z,11.02
2023-02-13T07:29:49.921Z,11.04
2023-02-13T07:32:16.306Z,11.04
2023-02-13T07:35:00.620Z,11.06
2023-02-13T07:37:29.490Z,11.06
2023-02-13T07:39:55.853Z,11.07
2023-02-13T07:42:22.368Z,11.08
2023-02-13T07:44:48.833Z,11.08
2023-02-13T07:47:15.344Z,11.10
2023-02-13T07:49:41.886Z,11.12
2023-02-13T07:52:08.316Z,11.12
2023-02-13T07:54:34.669Z,11.15
2023-02-13T07:57:01.078Z,11.16
2023-02-13T07:59:27.548Z,11.19
2023-02-13T08:01:54.002Z,11.19
2023-02-13T08:04:20.499Z,11.20
2023-02-13T08:06:46.844Z,11.24
2023-02-13T08:09:40.783Z,11.28
2023-02-13T08:12:09.188Z,11.29
2023-02-13T08:14:35.579Z,11.31
2023-02-13T08:17:02.129Z,11.34
2023-02-13T08:19:28.530Z,11.36
2023-02-13T08:21:55.032Z,11.37
2023-02-13T08:24:21.751Z,11.40
2023-02-13T08:26:48.207Z,11.42
2023-02-13T08:29:14.569Z,11.45
2023-02-13T08:31:41.220Z,11.48
2023-02-13T08:34:07.615Z,11.51
2023-02-13T08:36:33.934Z,11.53
2023-02-13T08:39:00.680Z,11.55
2023-02-13T08:41:27.106Z,11.58
2023-02-13T08:43:54.342Z,11.61
2023-02-13T08:46:20.940Z,11.63
2023-02-13T08:48:47.339Z,11.65
2023-02-13T08:51:14.238Z,11.67
2023-02-13T08:53:42.347Z,11.69
2023-02-13T08:56:09.600Z,11.70
2023-02-13T08:58:36.144Z,11.74
2023-02-13T09:01:07.229Z,11.77
2023-02-13T09:03:34.170Z,11.80
2023-02-13T09:06:02.215Z,11.82
2023-02-13T09:08:28.660Z,11.86
2023-02-13T09:10:58.087Z,11.89
2023-02-13T09:13:24.623Z,11.92
2023-02-13T09:15:50.977Z,11.95
2023-02-13T09:18:17.347Z,11.99
2023-02-13T09:20:43.781Z,12.04
2023-02-13T09:23:10.172Z,12.08
2023-02-13T09:25:36.754Z,12.13
2023-02-13T09:28:03.160Z,12.15
2023-02-13T09:30:29.554Z,12.19
2023-02-13T09:32:56.012Z,12.21
2023-02-13T09:35:23.183Z,12.25
2023-02-13T09:37:49.531Z,12.28
2023-02-13T09:40:25.560Z,12.35
2023-02-13T09:42:53.149Z,12.40
2023-02-13T09:45:21.943Z,12.47
2023-02-13T09:47:50.110Z,12.53
2023-02-13T09:50:23.875Z,12.59
2023-02-13T09:52:52.830Z,12.68
2023-02-13T09:55:24.644Z,12.76
2023-02-13T09:58:03.076Z,12.83
2023-02-13T10:00:50.933Z,12.90
2023-02-13T10:03:37.625Z,12.98
2023-02-13T10:06:26.029Z,13.01
2023-02-13T10:09:01.118Z,13.06
2023-02-13T10:11:38.436Z,13.09
2023-02-13T10:14:19.608Z,13.15
2023-02-13T10:17:01.306Z,13.21
2023-02-13T10:19:45.799Z,13.26
2023-02-13T10:22:16.745Z,13.33
2023-02-13T10:24:50.573Z,13.38
2023-02-13T10:27:23.878Z,13.42
2023-02-13T10:30:06.965Z,13.47
2023-02-13T10:32:45.435Z,13.51
2023-02-13T10:35:38.374Z,13.55
2023-02-13T10:38:17.624Z,13.58
2023-02-13T10:41:04.995Z,13.60
2023-02-13T10:43:59.619Z,13.61
2023-02-13T10:46:59.817Z,13.63
2023-02-13T10:50:04.011Z,13.65
2023-02-13T10:52:57.150Z,13.67
2023-02-13T10:55:23.635Z,13.66
2023-02-13T10:58:09.705Z,13.69
2023-02-13T11:00:48.906Z,13.70
2023-02-13T11:03:22.305Z,13.73
2023-02-13T11:05:49.888Z,13.75
2023-02-13T11:08:20.191Z,13.79
2023-02-13T11:10:47.103Z,13.83
2023-02-13T11:13:25.038Z,13.88
2023-02-13T11:16:01.992Z,13.94
2023-02-13T11:18:32.015Z,13.96
2023-02-13T11:21:21.917Z,14.01
2023-02-13T11:23:57.313Z,14.07
2023-02-13T11:26:36.460Z,14.10
2023-02-13T11:29:18.284Z,14.15
2023-02-13T11:31:44.752Z,14.19
2023-02-13T11:34:29.582Z,14.26
2023-02-13T11:37:14.165Z,14.31
2023-02-13T11:39:42.647Z,14.34
2023-02-13T11:42:32.354Z,14.41
2023-02-13T11:45:02.667Z,14.44
2023-02-13T11:47:42.589Z,14.47
2023-02-13T11:50:29.594Z,14.49
2023-02-13T11:52:59.955Z,14.50
2023-02-13T11:55:28.321Z,14.53
2023-02-13T11:58:03.773Z,14.54
2023-02-13T12:00:40.019Z,14.57
2023-02-13T12:03:22.475Z,14.58
2023-02-13T12:06:00.419Z,14.58
2023-02-13T12:08:27.923Z,14.54
2023-02-13T12:10:56.681Z,14.50
2023-02-13T12:13:32.771Z,14.51
2023-02-13T12:16:05.318Z,14.51
2023-02-13T12:18:39.729Z,14.53
2023-02-13T12:21:24.493Z,14.56
2023-02-13T12:24:03.069Z,14.57
2023-02-13T12:26:38.571Z,14.56
2023-02-13T12:29:29.251Z,14.55
2023-02-13T12:32:02.819Z,14.53
2023-02-13T12:34:57.938Z,14.49
2023-02-13T12:37:44.426Z,14.47
2023-02-13T12:40:28.598Z,14.44
2023-02-13T12:43:23.768Z,14.41
2023-02-13T12:46:06.559Z,14.40
2023-02-13T12:48:32.911Z,14.35
2023-02-13T12:51:24.720Z,14.32
2023-02-13T12:54:07.940Z,14.30
2023-02-13T12:56:49.744Z,14.25
2023-02-13T12:59:45.579Z,14.23
2023-02-13T13:02:57.090Z,14.22
2023-02-13T13:05:30.189Z,14.20
2023-02-13T13:08:36.832Z,14.19
2023-02-13T13:11:29.155Z,14.19
2023-02-13T13:14:00.891Z,14.18
2023-02-13T13:16:45.292Z,14.19
2023-02-13T13:19:40.462Z,14.18
2023-02-13T13:22:19.743Z,14.18
2023-02-13T13:24:48.843Z,14.18
2023-02-13T13:27:23.575Z,14.18
2023-02-13T13:29:59.176Z,14.19
2023-02-13T13:32:27.342Z,14.19
2023-02-13T13:34:54.840Z,14.20
2023-02-13T13:37:26.798Z,14.21
2023-02-13T13:40:16.359Z,14.21
2023-02-13T13:42:54.586Z,14.20
2023-02-13T13:45:35.590Z,14.21
2023-02-13T13:48:21.551Z,14.21
2023-02-13T13:50:49.014Z,14.19
2023-02-13T13:53:20.817Z,14.17
2023-02-13T13:55:47.410Z,14.16
2023-02-13T13:58:32.991Z,14.16
2023-02-13T14:01:14.650Z,14.15
2023-02-13T14:03:46.033Z,14.15
2023-02-13T14:06:49.228Z,14.16
2023-02-13T14:09:27.695Z,14.18
2023-02-13T14:11:56.485Z,14.18
2023-02-13T14:14:42.806Z,14.20
2023-02-13T14:17:14.393Z,14.21
2023-02-13T14:19:51.814Z,14.18
2023-02-13T14:22:36.145Z,14.19
2023-02-13T14:25:06.482Z,14.17
2023-02-13T14:27:38.558Z,14.16
2023-02-13T14:30:24.545Z,14.14
2023-02-13T14:32:51.295Z,14.13
2023-02-13T14:35:30.187Z,14.12
2023-02-13T14:37:59.399Z,14.11
2023-02-13T14:40:43.152Z,14.11
2023-02-13T14:43:33.782Z,14.10
2023-02-13T14:46:06.217Z,14.09
2023-02-13T14:48:39.542Z,14.08
2023-02-13T14:51:07.697Z,14.04
2023-02-13T14:54:03.621Z,14.02
2023-02-13T14:56:31.491Z,13.98
2023-02-13T14:59:32.734Z,13.94
2023-02-13T15:02:14.019Z,13.91
2023-02-13T15:04:47.588Z,13.88
2023-02-13T15:07:19.961Z,13.83
2023-02-13T15:09:56.342Z,13.80
2023-02-13T15:12:36.838Z,13.77
2023-02-13T15:15:23.532Z,13.72
2023-02-13T15:17:50.485Z,13.68
2023-02-13T15:20:24.898Z,13.65
2023-02-13T15:22:52.668Z,13.60
2023-02-13T15:25:40.201Z,13.58
2023-02-13T15:28:16.155Z,13.54
2023-02-13T15:30:52.792Z,13.54
2023-02-13T15:33:22.348Z,13.51
2023-02-13T15:36:03.733Z,13.44
2023-02-13T15:38:36.405Z,13.40
2023-02-13T15:41:05.207Z,13.34
2023-02-13T15:43:38.339Z,13.32
2023-02-13T15:46:17.310Z,13.28
2023-02-13T15:48:45.165Z,13.23
2023-02-13T15:51:19.781Z,13.23
2023-02-13T15:54:00.764Z,13.17
2023-02-13T15:56:28.016Z,13.12
2023-02-13T15:58:55.904Z,13.07
2023-02-13T16:01:23.141Z,13.04
2023-02-13T16:03:54.097Z,13.00
2023-02-13T16:06:23.574Z,12.96
2023-02-13T16:08:58.321Z,12.92
2023-02-13T16:11:31.492Z,12.88
2023-02-13T16:14:06.133Z,12.82
2023-02-13T16:17:00.719Z,12.77
2023-02-13T16:19:50.439Z,12.72
2023-02-13T16:22:38.600Z,12.65
2023-02-13T16:25:16.972Z,12.60
2023-02-13T16:27:46.875Z,12.55
2023-02-13T16:30:28.144Z,12.48
2023-02-13T16:33:14.712Z,12.40
2023-02-13T16:35:43.895Z,12.34
2023-02-13T16:38:28.419Z,12.27
2023-02-13T16:40:57.374Z,12.20
2023-02-13T16:43:42.468Z,12.13
2023-02-13T16:46:17.675Z,12.07
2023-02-13T16:48:46.209Z,11.99
2023-02-13T16:51:13.166Z,11.91
2023-02-13T16:53:40.539Z,11.84
2023-02-13T16:56:08.949Z,11.77
2023-02-13T16:58:35.689Z,11.70
2023-02-13T17:01:04.917Z,11.63
2023-02-13T17:03:34.340Z,11.55
2023-02-13T17:06:03.957Z,11.48
2023-02-13T17:08:31.788Z,11.39
2023-02-13T17:11:04.679Z,11.31
2023-02-13T17:13:31.310Z,11.21
2023-02-13T17:15:59.273Z,11.14
2023-02-13T17:18:26.936Z,11.06
2023-02-13T17:20:54.134Z,10.98
2023-02-13T17:23:23.906Z,10.93
2023-02-13T17:25:52.606Z,10.87
2023-02-13T17:28:25.033Z,10.82
2023-02-13T17:30:53.973Z,10.76
2023-02-13T17:33:25.491Z,10.72
2023-02-13T17:35:53.169Z,10.67
2023-02-13T17:38:19.619Z,10.62
2023-02-13T17:40:46.322Z,10.58
2023-02-13T17:43:14.672Z,10.53
2023-02-13T17:45:41.480Z,10.48
2023-02-13T17:48:08.410Z,10.43
2023-02-13T17:50:35.404Z,10.38
2023-02-13T17:53:04.157Z,10.34
2023-02-13T17:55:32.497Z,10.31
2023-02-13T17:57:59.913Z,10.26
2023-02-13T18:00:32.684Z,10.23
2023-02-13T18:03:00.383Z,10.18
2023-02-13T18:05:27.794Z,10.13
2023-02-13T18:07:54.501Z,10.09
2023-02-13T18:10:24.047Z,10.07
2023-02-13T18:12:51.468Z,10.02
2023-02-13T18:15:18.858Z,9.99
2023-02-13T18:17:46.179Z,9.96
2023-02-13T18:20:15.084Z,9.94
2023-02-13T18:22:41.764Z,9.91
2023-02-13T18:25:08.716Z,9.88
2023-02-13T18:27:35.234Z,9.85
2023-02-13T18:30:02.234Z,9.82
2023-02-13T18:32:28.778Z,9.80
2023-02-13T18:34:55.243Z,9.76
2023-02-13T18:37:21.634Z,9.73
2023-02-13T18:39:47.943Z,9.67
2023-02-13T18:42:14.369Z,9.64
2023-02-13T18:44:41.271Z,9.60
2023-02-13T18:47:07.924Z,9.56
2023-02-13T18:49:34.285Z,9.52
2023-02-13T18:52:01.559Z,9.48
2023-02-13T18:54:28.334Z,9.43
2023-02-13T18:56:54.665Z,9.40
2023-02-13T18:59:22.800Z,9.37
2023-02-13T19:01:49.897Z,9.33
2023-02-13T19:04:16.394Z,9.29
2023-02-13T19:06:43.786Z,9.25
2023-02-13T19:09:10.761Z,9.21
2023-02-13T19:11:38.680Z,9.17
2023-02-13T19:14:06.178Z,9.12
2023-02-13T19:16:34.662Z,9.08
2023-02-13T19:19:04.198Z,9.04
2023-02-13T19:21:32.999Z,8.98
2023-02-13T19:23:59.399Z,8.94
2023-02-13T19:26:26.996Z,8.89
2023-02-13T19:28:53.895Z,8.83
2023-02-13T19:31:23.487Z,8.79
2023-02-13T19:33:50.944Z,8.73
2023-02-13T19:36:23.114Z,8.68
2023-02-13T19:38:54.477Z,8.64
2023-02-13T19:41:21.001Z,8.59
2023-02-13T19:43:50.866Z,8.53
2023-02-13T19:46:22.928Z,8.49
2023-02-13T19:48:50.374Z,8.44
2023-02-13T19:51:19.675Z,8.42
2023-02-13T19:53:46.236Z,8.38
2023-02-13T19:56:13.569Z,8.34
2023-02-13T19:58:41.258Z,8.32
2023-02-13T20:01:09.847Z,8.29
2023-02-13T20:03:36.565Z,8.25
2023-02-13T20:06:08.138Z,8.21
2023-02-13T20:08:34.744Z,8.17
2023-02-13T20:11:01.407Z,8.13
2023-02-13T20:13:28.440Z,8.10
2023-02-13T20:15:55.224Z,8.07
2023-02-13T20:18:22.114Z,8.04
2023-02-13T20:20:48.480Z,8.01
2023-02-13T20:23:16.955Z,7.99
2023-02-13T20:25:43.345Z,7.95
2023-02-13T20:28:11.416Z,7.90
2023-02-13T20:30:42.111Z,7.86
2023-02-13T20:33:08.656Z,7.82
2023-02-13T20:35:35.168Z,7.78
2023-02-13T20:38:01.630Z,7.75
2023-02-13T20:40:27.995Z,7.70
2023-02-13T20:42:54.384Z,7.67
2023-02-13T20:45:21.048Z,7.64
2023-02-13T20:47:47.566Z,7.58
2023-02-13T20:50:14.082Z,7.55
2023-02-13T20:52:40.536Z,7.49
2023-02-13T20:55:07.626Z,7.46
2023-02-13T20:57:35.013Z,7.41
2023-02-13T21:00:01.840Z,7.38
2023-02-13T21:02:28.227Z,7.35
2023-02-13T21:04:54.596Z,7.32
2023-02-13T21:07:22.250Z,7.29
2023-02-13T21:09:48.651Z,7.26
2023-02-13T21:12:15.069Z,7.23
2023-02-13T21:14:41.456Z,7.19
2023-02-13T21:17:09.492Z,7.15
2023-02-13T21:19:36.210Z,7.12
2023-02-13T21:22:11.947Z,7.10
2023-02-13T21:24:38.934Z,7.10
2023-02-13T21:27:05.408Z,7.07
2023-02-13T21:29:31.822Z,7.01
2023-02-13T21:31:58.181Z,6.98
2023-02-13T21:34:24.639Z,6.94
2023-02-13T21:36:51.106Z,6.90
2023-02-13T21:39:17.516Z,6.87
2023-02-13T21:41:45.512Z,6.85
2023-02-13T21:44:15.830Z,6.82
2023-02-13T21:46:43.664Z,6.79
2023-02-13T21:49:16.377Z,6.76
2023-02-13T21:51:43.011Z,6.73
2023-02-13T21:54:10.188Z,6.70
2023-02-13T21:56:39.534Z,6.67
2023-02-13T21:59:06.728Z,6.64
2023-02-13T22:01:35.992Z,6.61
2023-02-13T22:04:06.060Z,6.57
2023-02-13T22:06:34.327Z,6.54
2023-02-13T22:09:05.689Z,6.50
2023-02-13T22:11:32.582Z,6.48
2023-02-13T22:14:04.380Z,6.45
2023-02-13T22:16:33.704Z,6.41
2023-02-13T22:19:01.246Z,6.37
2023-02-13T22:21:29.437Z,6.33
2023-02-13T22:23:55.940Z,6.28
2023-02-13T22:26:31.221Z,6.25
2023-02-13T22:29:06.524Z,6.22
2023-02-13T22:31:33.634Z,6.19
2023-02-13T22:34:05.016Z,6.17
2023-02-13T22:36:33.335Z,6.14
2023-02-13T22:38:59.826Z,6.13
2023-02-13T22:41:27.260Z,6.11
2023-02-13T22:43:54.431Z,6.09
2023-02-13T22:46:29.891Z,6.07
2023-02-13T22:48:56.886Z,6.06
2023-02-13T22:51:34.310Z,6.03
2023-02-13T22:54:01.699Z,6.02
2023-02-13T22:56:29.837Z,6.00
2023-02-13T22:58:57.097Z,5.97
2023-02-13T23:01:25.793Z,5.94
2023-02-13T23:03:52.406Z,5.92
2023-02-13T23:06:19.466Z,5.90
2023-02-13T23:08:48.916Z,5.90
2023-02-13T23:11:35.226Z,5.87
2023-02-13T23:14:01.650Z,5.86
2023-02-13T23:16:28.797Z,5.83
2023-02-13T23:18:57.154Z,5.82
2023-02-13T23:21:26.537Z,5.81
2023-02-13T23:23:52.922Z,5.78
2023-02-13T23:26:19.647Z,5.73
2023-02-13T23:28:45.978Z,5.72
2023-02-13T23:31:12.395Z,5.69
2023-02-13T23:33:38.885Z,5.66
2023-02-13T23:36:05.639Z,5.65
2023-02-13T23:38:32.018Z,5.62
2023-02-13T23:41:08.771Z,5.60
2023-02-13T23:43:35.296Z,5.58
2023-02-13T23:46:05.865Z,5.57
2023-02-13T23:48:33.221Z,5.56
2023-02-13T23:50:59.966Z,5.54
2023-02-13T23:53:26.666Z,5.54
2023-02-13T23:55:54.901Z,5.54
2023-02-13T23:58:21.332Z,5.55
